Brandenburg, KY

7:09 PM EST on February 06, 2016 (GMT -0500)
Old Weldon | | Change Station
CLOSE
Current Station
Personal Weather Station
Location: Brandenburg, KY
Elevation: 636 ft
Nearby Weather Stations

Elev 636 ft 37.97 °N, 86.13 °W | Updated 1 minute ago

Partly Cloudy
Partly Cloudy
46.3 °F
Feels Like 46 °F
N
0.0
Wind Variable Wind from SW
Gusts 0.0 mph

Today
High -- | Low -- °F
--% Chance of Precip.
Yesterday
High -- | Low -- °F
Precip. -- in
Pressure 30.28 in
Visibility 10.0 miles
Clouds Clear
Windchill 46 °F
Dew Point 28 °F
Humidity 49%
Rainfall 0.00 in
Snow Depth Not available.
7:44 AM 6:12 PM
Waning Crescent, 3% visible
METAR KFTK 062359Z AUTO 00000KT 10SM CLR 06/M05 A3025 RMK AO2 SLP253 T00571052 10111 20056 53003
Pressure 30.28 in
Visibility 10.0 miles
Clouds Clear
Windchill 46 °F
Dew Point 28 °F
Humidity 49%
Rainfall 0.00 in
Snow Depth Not available.
7:44 AM 6:12 PM
Waning Crescent, 3% visible
METAR KFTK 062359Z AUTO 00000KT 10SM CLR 06/M05 A3025 RMK AO2 SLP253 T00571052 10111 20056 53003

10-Day Weather Forecast

Almanac

Astronomy

Feb. 06, 2016 Rise Set
Actual Time
Civil Twilight
Nautical Twilight
Astronomical Twilight
Moon
Length of Visible Light
Length of Day
Tomorrow will be .
, % of the Moon is Illuminated

Today's Extremes

State Highs State Lows

Community

WunderPhotos

Upload Photos

1,891,105 photos uploaded!

WunderBlog® & News

Nearby

Air Quality

  Air Quality AQ Index Pollutant
Not available.

Snow Depth

Station Depth Elevation

Earthquake Activity

City Distance Mag. Time & Date
Minimum magnitude displayed is 2.5.

Coastal Water Temperatures

Place Temperature

Stations

Nearby Weather Stations

Station Location Temp. Windchill Dew Point Humidity Wind Precip. Elev Updated Type
                   

Watches & Warnings

There are currently no watches in effect.